Time;durP1;ratioP1;P1;durP2;ratioP2;P2;SDS_P1;SDS_P2;PMS_P1;PMS_P2;Temp;Humidity;BMP_temperature;BMP_pressure;BME280_temperature;BME280_humidity;BME280_pressure;Samples;Min_cycle;Max_cycle;Signal;HPM_P1;HPM_P2
2024/02/05 00:01:17;;;;;;;1999.90;999.90;;;11.40;99.90;;;;;;5035261;28;20169;-74
2024/02/05 00:03:45;;;;;;;1999.90;999.90;;;11.60;99.90;;;;;;5035176;28;20272;-73
2024/02/05 00:06:12;;;;;;;1999.90;999.90;;;11.40;99.90;;;;;;5035503;28;20830;-74
2024/02/05 00:08:37;;;;;;;1999.90;999.90;;;10.90;99.90;;;;;;5035001;28;20489;-73
2024/02/05 00:11:05;;;;;;;1999.90;999.90;;;11.30;99.90;;;;;;5035274;28;20441;-73
2024/02/05 00:13:30;;;;;;;1999.90;999.90;;;11.40;99.90;;;;;;5035069;28;20168;-73
2024/02/05 00:15:56;;;;;;;1999.90;999.90;;;11.40;99.90;;;;;;5035157;28;20420;-74
2024/02/05 00:18:24;;;;;;;1999.90;999.90;;;11.50;99.90;;;;;;5034895;28;20421;-74
2024/02/05 00:20:50;;;;;;;1999.90;999.90;;;11.10;99.90;;;;;;5035035;28;20196;-73
2024/02/05 00:23:15;;;;;;;1999.90;999.90;;;11.40;99.90;;;;;;5035023;28;20440;-75
2024/02/05 00:25:41;;;;;;;1999.90;999.90;;;11.50;99.90;;;;;;5034803;28;20551;-74
2024/02/05 00:28:07;;;;;;;1999.90;999.90;;;11.20;99.90;;;;;;5034774;28;20186;-74
2024/02/05 00:30:33;;;;;;;1999.90;999.90;;;11.50;99.90;;;;;;5035097;28;20461;-73
2024/02/05 00:32:59;;;;;;;1999.90;999.90;;;11.50;99.90;;;;;;5034162;28;20414;-73
2024/02/05 00:35:24;;;;;;;1999.90;999.90;;;11.50;99.90;;;;;;5034706;28;20164;-73
2024/02/05 00:37:50;;;;;;;1999.90;999.90;;;11.20;99.90;;;;;;5034367;28;20681;-73
2024/02/05 00:40:16;;;;;;;1999.90;999.90;;;11.40;99.90;;;;;;5034669;28;20604;-74
2024/02/05 00:42:43;;;;;;;1999.90;999.90;;;11.20;99.90;;;;;;5035125;28;20175;-73
2024/02/05 00:45:09;;;;;;;1999.90;999.90;;;11.50;99.90;;;;;;5034703;28;20757;-74
2024/02/05 00:47:34;;;;;;;1999.90;999.90;;;11.20;99.90;;;;;;5034132;28;20461;-73
2024/02/05 00:50:00;;;;;;;1999.90;999.90;;;11.60;99.90;;;;;;5034251;28;20797;-73
2024/02/05 00:52:27;;;;;;;1999.90;999.90;;;11.50;99.90;;;;;;5034577;28;20255;-73
2024/02/05 00:54:53;;;;;;;1999.90;999.90;;;11.50;99.90;;;;;;5034369;28;20169;-73
2024/02/05 00:57:19;;;;;;;1999.90;999.90;;;11.60;99.90;;;;;;5034315;28;20467;-74
2024/02/05 00:59:45;;;;;;;1999.90;999.90;;;11.20;99.90;;;;;;5033967;28;20298;-75
2024/02/05 01:02:10;;;;;;;1999.90;999.90;;;11.40;99.90;;;;;;5034232;28;20171;-74
2024/02/05 01:04:37;;;;;;;1999.90;999.90;;;11.50;99.90;;;;;;5034298;28;20233;-74
2024/02/05 01:07:03;;;;;;;1999.90;999.90;;;11.20;99.90;;;;;;5033956;28;20196;-73
2024/02/05 01:09:29;;;;;;;1999.90;999.90;;;11.10;99.90;;;;;;5033669;28;20952;-73
2024/02/05 01:11:55;;;;;;;1999.90;999.90;;;11.40;99.90;;;;;;5034051;28;20457;-73
2024/02/05 01:14:21;;;;;;;1999.90;999.90;;;11.30;99.90;;;;;;5034006;28;20574;-73
2024/02/05 01:16:46;;;;;;;1999.90;999.90;;;11.30;99.90;;;;;;5034067;28;20180;-73
2024/02/05 01:19:12;;;;;;;1999.90;999.90;;;11.30;99.90;;;;;;5033698;28;20196;-74
2024/02/05 01:21:38;;;;;;;1999.90;999.90;;;11.10;99.90;;;;;;5033904;28;20171;-74
2024/02/05 01:24:04;;;;;;;1999.90;999.90;;;11.30;99.90;;;;;;5033821;28;20407;-73
2024/02/05 01:26:30;;;;;;;1999.90;999.90;;;11.10;99.90;;;;;;5033698;28;20282;-73
2024/02/05 01:28:55;;;;;;;1999.90;999.90;;;11.40;99.90;;;;;;5033395;28;20426;-73
2024/02/05 01:31:21;;;;;;;1999.90;999.90;;;11.80;99.90;;;;;;5033646;28;20237;-73
2024/02/05 01:33:47;;;;;;;1999.90;999.90;;;11.50;99.90;;;;;;5033623;28;20460;-73
2024/02/05 01:36:15;;;;;;;1999.90;999.90;;;11.50;99.90;;;;;;5033512;28;20732;-74
2024/02/05 01:38:40;;;;;;;1999.90;999.90;;;11.10;99.90;;;;;;5033165;28;20168;-74
2024/02/05 01:41:06;;;;;;;1999.90;999.90;;;11.30;99.90;;;;;;5033327;28;20433;-73
2024/02/05 01:43:32;;;;;;;1999.90;999.90;;;11.40;99.90;;;;;;5033559;28;20172;-74
2024/02/05 01:45:57;;;;;;;1999.90;999.90;;;11.30;99.90;;;;;;5033342;28;20257;-75
2024/02/05 01:48:29;;;;;;;1999.90;999.90;;;11.40;99.90;;;;;;5033088;28;20252;-73
2024/02/05 01:50:55;;;;;;;1999.90;999.90;;;11.50;99.90;;;;;;5033084;28;20994;-72
2024/02/05 01:53:22;;;;;;;1999.90;999.90;;;11.30;99.90;;;;;;5033213;28;20416;-74
2024/02/05 01:55:51;;;;;;;1999.90;999.90;;;11.40;99.90;;;;;;5033246;28;20410;-73
2024/02/05 01:58:19;;;;;;;1999.90;999.90;;;11.40;99.90;;;;;;5032829;28;20407;-73
2024/02/05 02:00:44;;;;;;;1999.90;999.90;;;11.40;99.90;;;;;;5032996;28;20835;-74
2024/02/05 02:03:12;;;;;;;1999.90;999.90;;;11.40;99.90;;;;;;5032959;28;20479;-75
2024/02/05 02:05:38;;;;;;;1999.90;999.90;;;11.40;99.90;;;;;;5032938;28;20818;-73
2024/02/05 02:08:10;;;;;;;1999.90;999.90;;;11.30;99.90;;;;;;5032587;28;20422;-74
2024/02/05 02:10:36;;;;;;;1999.90;999.90;;;11.30;99.90;;;;;;5032857;28;20423;-73
2024/02/05 02:13:03;;;;;;;1999.90;999.90;;;11.20;99.90;;;;;;5032783;28;20443;-73
2024/02/05 02:15:29;;;;;;;1999.90;999.90;;;11.20;99.90;;;;;;5032699;28;20413;-73
2024/02/05 02:17:59;;;;;;;1999.90;999.90;;;11.40;99.90;;;;;;5032614;28;20410;-74
2024/02/05 02:20:28;;;;;;;1999.90;999.90;;;11.30;99.90;;;;;;5032725;28;20275;-74
2024/02/05 02:22:57;;;;;;;1999.90;999.90;;;11.20;99.90;;;;;;5032728;28;20398;-74
2024/02/05 02:25:23;;;;;;;1999.90;999.90;;;11.20;99.90;;;;;;5032518;28;20831;-73
2024/02/05 02:27:49;;;;;;;1999.90;999.90;;;11.40;99.90;;;;;;5032335;28;20409;-73
2024/02/05 02:30:18;;;;;;;1999.90;999.90;;;11.50;99.90;;;;;;5032489;28;20453;-74
2024/02/05 02:33:04;;;;;;;1999.90;999.90;;;11.50;99.90;;;;;;5032573;28;20399;-73
2024/02/05 02:35:37;;;;;;;1999.90;999.90;;;11.00;99.90;;;;;;5032541;28;20913;-73
2024/02/05 02:38:32;;;;;;;1999.90;999.90;;;11.40;99.90;;;;;;5032282;28;20439;-74
2024/02/05 02:41:03;;;;;;;1999.90;999.90;;;11.00;99.90;;;;;;5030061;28;20534;-73
2024/02/05 02:43:34;;;;;;;1999.90;999.90;;;11.00;99.90;;;;;;5032392;28;20407;-74
2024/02/05 02:46:01;;;;;;;1999.90;999.90;;;11.20;99.90;;;;;;5032281;28;20442;-74
2024/02/05 02:48:28;;;;;;;1999.90;999.90;;;11.20;99.90;;;;;;5031991;28;20437;-72
2024/02/05 02:50:53;;;;;;;1999.90;999.90;;;11.30;99.90;;;;;;5032106;28;20461;-74
2024/02/05 02:53:19;;;;;;;1999.90;999.90;;;11.30;99.90;;;;;;5032245;28;20455;-72
2024/02/05 02:55:45;;;;;;;1999.90;999.90;;;11.30;99.90;;;;;;5031691;28;20246;-72
2024/02/05 02:58:10;;;;;;;1999.90;999.90;;;11.30;99.90;;;;;;5031853;28;20639;-73
2024/02/05 03:00:36;;;;;;;1999.90;999.90;;;11.30;99.90;;;;;;5032009;28;20180;-73
2024/02/05 03:03:02;;;;;;;1999.90;999.90;;;11.30;99.90;;;;;;5032058;28;20660;-73
2024/02/05 03:05:27;;;;;;;1999.90;999.90;;;10.90;99.90;;;;;;5031875;28;20172;-73
2024/02/05 03:07:53;;;;;;;1999.90;999.90;;;11.20;99.90;;;;;;5031746;28;20171;-72
2024/02/05 03:10:19;;;;;;;1999.90;999.90;;;11.20;99.90;;;;;;5031829;28;20180;-73
2024/02/05 03:12:44;;;;;;;1999.90;999.90;;;10.90;99.90;;;;;;5031874;28;20409;-73
2024/02/05 03:15:11;;;;;;;1999.90;999.90;;;11.10;99.90;;;;;;5031759;28;20199;-73
2024/02/05 03:17:37;;;;;;;1999.90;999.90;;;10.90;99.90;;;;;;5031943;28;20777;-73
2024/02/05 03:20:05;;;;;;;1999.90;999.90;;;11.20;99.90;;;;;;5031934;28;20195;-73
2024/02/05 03:22:30;;;;;;;1999.90;999.90;;;10.90;99.90;;;;;;5031905;28;20270;-73
2024/02/05 03:24:56;;;;;;;1999.90;999.90;;;11.30;99.90;;;;;;5031774;28;20437;-72
2024/02/05 03:27:22;;;;;;;1999.90;999.90;;;11.30;99.90;;;;;;5031470;28;20248;-71
2024/02/05 03:29:47;;;;;;;1999.90;999.90;;;11.30;99.90;;;;;;5031700;28;20799;-72
2024/02/05 03:32:13;;;;;;;1999.90;999.90;;;11.20;99.90;;;;;;5031721;28;20185;-72
2024/02/05 03:34:39;;;;;;;1999.90;999.90;;;11.10;99.90;;;;;;5031723;28;20180;-72
2024/02/05 03:37:05;;;;;;;1999.90;999.90;;;11.00;99.90;;;;;;5031672;28;20913;-73
2024/02/05 03:39:30;;;;;;;1999.90;999.90;;;11.20;99.90;;;;;;5068166;22;20495;-70
2024/02/05 03:41:56;;;;;;;1999.90;999.90;;;11.10;99.90;;;;;;5012008;28;20172;-69
2024/02/05 03:44:22;;;;;;;1999.90;999.90;;;11.00;99.90;;;;;;5011472;28;20191;-70
2024/02/05 03:46:47;;;;;;;1999.90;999.90;;;11.00;99.90;;;;;;5012040;28;20207;-70
2024/02/05 03:49:13;;;;;;;1999.90;999.90;;;10.80;99.90;;;;;;5010807;28;20168;-70
2024/02/05 03:51:39;;;;;;;1999.90;999.90;;;11.00;99.90;;;;;;5012169;28;20153;-69
2024/02/05 03:54:07;;;;;;;1999.90;999.90;;;11.00;99.90;;;;;;5011930;28;20488;-69
2024/02/05 03:56:33;;;;;;;1999.90;999.90;;;10.80;99.90;;;;;;5012332;28;20546;-70
2024/02/05 03:58:59;;;;;;;1999.90;999.90;;;10.40;99.90;;;;;;5011920;28;20412;-70
2024/02/05 04:01:24;;;;;;;1999.90;999.90;;;10.90;99.90;;;;;;5012333;28;20422;-70
2024/02/05 04:03:50;;;;;;;1999.90;999.90;;;11.00;99.90;;;;;;5012268;28;20786;-70
2024/02/05 04:06:16;;;;;;;1999.90;999.90;;;11.00;99.90;;;;;;5012288;28;20559;-70
2024/02/05 04:08:41;;;;;;;1999.90;999.90;;;10.80;99.90;;;;;;5013940;28;20169;-70
2024/02/05 04:11:07;;;;;;;1999.90;999.90;;;11.00;99.90;;;;;;5015262;28;20190;-69
2024/02/05 04:13:32;;;;;;;1999.90;999.90;;;11.00;99.90;;;;;;5015895;28;20203;-70
2024/02/05 04:15:58;;;;;;;1999.90;999.90;;;11.00;99.90;;;;;;5016179;28;20176;-70
2024/02/05 04:18:24;;;;;;;1999.90;999.90;;;11.00;99.90;;;;;;5015541;28;20219;-70
2024/02/05 04:20:56;;;;;;;1999.90;999.90;;;11.00;99.90;;;;;;5015790;28;20215;-70
2024/02/05 04:23:24;;;;;;;1999.90;999.90;;;11.00;99.90;;;;;;5015812;28;20161;-70
2024/02/05 04:25:49;;;;;;;1999.90;999.90;;;11.00;99.90;;;;;;5015497;28;20446;-69
2024/02/05 04:28:15;;;;;;;1999.90;999.90;;;11.00;99.90;;;;;;5014877;28;20465;-69
2024/02/05 04:30:42;;;;;;;1999.90;999.90;;;11.00;99.90;;;;;;5015539;28;20675;-70
2024/02/05 04:33:07;;;;;;;1999.90;999.90;;;11.00;99.90;;;;;;5015390;28;20226;-69
2024/02/05 04:35:33;;;;;;;1999.90;999.90;;;11.00;99.90;;;;;;5015498;28;20408;-69
2024/02/05 04:37:58;;;;;;;1999.90;999.90;;;11.00;99.90;;;;;;5014824;28;20251;-70
2024/02/05 04:40:24;;;;;;;1999.90;999.90;;;10.80;99.90;;;;;;5015053;28;20208;-70
2024/02/05 04:42:50;;;;;;;1999.90;999.90;;;11.00;99.90;;;;;;5015441;28;20203;-70
2024/02/05 04:45:15;;;;;;;1999.90;999.90;;;11.10;99.90;;;;;;5015594;28;20167;-69
2024/02/05 04:47:41;;;;;;;1999.90;999.90;;;11.00;99.90;;;;;;5015033;28;20198;-70
2024/02/05 04:50:07;;;;;;;1999.90;999.90;;;11.00;99.90;;;;;;5014596;28;20230;-70
2024/02/05 04:52:32;;;;;;;1999.90;999.90;;;10.80;99.90;;;;;;5014660;28;20172;-69
2024/02/05 04:54:58;;;;;;;1999.90;999.90;;;11.00;99.90;;;;;;5013428;28;20415;-69
2024/02/05 04:57:23;;;;;;;1999.90;999.90;;;11.00;99.90;;;;;;5014596;28;20172;-70
2024/02/05 04:59:49;;;;;;;1999.90;999.90;;;11.00;99.90;;;;;;5014411;28;20185;-70
2024/02/05 05:02:15;;;;;;;1999.90;999.90;;;11.00;99.90;;;;;;5015033;28;20334;-70
2024/02/05 05:04:42;;;;;;;1999.90;999.90;;;11.00;99.90;;;;;;5014551;28;20180;-70
2024/02/05 05:07:08;;;;;;;1999.90;999.90;;;11.00;99.90;;;;;;5014600;28;20202;-70
2024/02/05 05:09:33;;;;;;;1999.90;999.90;;;11.00;99.90;;;;;;5014157;28;20435;-70
2024/02/05 05:11:59;;;;;;;1999.90;999.90;;;10.90;99.90;;;;;;5014145;28;20252;-69
2024/02/05 05:14:24;;;;;;;1999.90;999.90;;;11.00;99.90;;;;;;5014202;28;20168;-70
2024/02/05 05:16:50;;;;;;;1999.90;999.90;;;10.90;99.90;;;;;;5014163;28;20611;-70
2024/02/05 05:19:16;;;;;;;1999.90;999.90;;;11.10;99.90;;;;;;5012622;28;20171;-70
2024/02/05 05:21:42;;;;;;;1999.90;999.90;;;10.70;99.90;;;;;;5014400;28;20644;-70
2024/02/05 05:24:07;;;;;;;1999.90;999.90;;;10.90;99.90;;;;;;5013356;28;20177;-70
2024/02/05 05:26:33;;;;;;;1999.90;999.90;;;10.90;99.90;;;;;;5014432;28;20818;-70
2024/02/05 05:28:59;;;;;;;1999.90;999.90;;;;;;;;;;5014322;28;20177;-70
2024/02/05 05:31:24;;;;;;;1999.90;999.90;;;10.70;99.90;;;;;;5014468;28;20259;-70
2024/02/05 05:33:50;;;;;;;1999.90;999.90;;;10.90;99.90;;;;;;5013893;28;20407;-70
2024/02/05 05:36:15;;;;;;;1999.90;999.90;;;10.80;99.90;;;;;;5014347;28;20527;-69
2024/02/05 05:38:41;;;;;;;1999.90;999.90;;;10.90;99.90;;;;;;5014251;28;20184;-70
2024/02/05 05:41:06;;;;;;;1999.90;999.90;;;10.80;99.90;;;;;;5014302;28;20212;-70
2024/02/05 05:43:32;;;;;;;1999.90;999.90;;;10.80;99.90;;;;;;5014107;28;20171;-70
2024/02/05 05:45:58;;;;;;;1999.90;999.90;;;10.80;99.90;;;;;;5014250;28;20306;-70
2024/02/05 05:48:24;;;;;;;1999.90;999.90;;;10.80;99.90;;;;;;5014033;28;20173;-70
2024/02/05 05:50:51;;;;;;;1999.90;999.90;;;10.80;99.90;;;;;;5013196;28;20192;-70
2024/02/05 05:53:17;;;;;;;1999.90;999.90;;;10.80;99.90;;;;;;5013421;28;20407;-70
2024/02/05 05:55:43;;;;;;;1999.90;999.90;;;10.80;99.90;;;;;;5013218;28;20473;-70
2024/02/05 05:58:08;;;;;;;1999.90;999.90;;;10.60;99.90;;;;;;5013181;28;20798;-70
2024/02/05 06:00:34;;;;;;;1999.90;999.90;;;10.80;99.90;;;;;;5013238;28;20930;-70
2024/02/05 06:03:00;;;;;;;1999.90;999.90;;;10.80;99.90;;;;;;5013227;28;20218;-70
2024/02/05 06:05:26;;;;;;;1999.90;999.90;;;10.70;99.90;;;;;;5015763;28;20176;-71
2024/02/05 06:07:51;;;;;;;1999.90;999.90;;;10.80;99.90;;;;;;5016303;28;20416;-71
2024/02/05 06:10:17;;;;;;;1999.90;999.90;;;10.70;94.20;;;;;;5016565;28;20193;-71
2024/02/05 06:12:44;;;;;;;1999.90;999.90;;;10.70;95.70;;;;;;5017716;28;20600;-71
2024/02/05 06:15:11;;;;;;;1999.90;999.90;;;10.80;82.90;;;;;;5016763;28;20408;-71
2024/02/05 06:17:37;;;;;;;1999.90;999.90;;;10.50;89.60;;;;;;5015811;28;20818;-71
2024/02/05 06:20:05;;;;;;;1999.90;999.90;;;10.60;92.20;;;;;;5016662;28;20849;-71
2024/02/05 06:22:31;;;;;;;1999.90;999.90;;;10.50;94.60;;;;;;5015377;28;20526;-71
2024/02/05 06:24:57;;;;;;;1999.90;999.90;;;10.70;97.20;;;;;;5016277;28;20415;-71
2024/02/05 06:27:23;;;;;;;1999.90;999.90;;;10.60;99.90;;;;;;5015822;28;20519;-71
2024/02/05 06:29:48;;;;;;;1999.90;999.90;;;10.60;99.90;;;;;;5014631;28;20216;-70
2024/02/05 06:32:14;;;;;;;1999.90;999.90;;;10.60;99.90;;;;;;5012576;28;20165;-70
2024/02/05 06:34:40;;;;;;;1999.90;999.90;;;10.60;99.20;;;;;;5012456;28;20630;-69
2024/02/05 06:37:06;;;;;;;1999.90;999.90;;;10.60;99.90;;;;;;5012897;28;20168;-70
2024/02/05 06:39:31;;;;;;;1999.90;999.90;;;10.60;99.90;;;;;;5012268;28;20446;-70
2024/02/05 06:41:57;;;;;;;1999.90;999.90;;;10.60;99.90;;;;;;5012867;28;20263;-70
2024/02/05 06:44:22;;;;;;;1999.90;999.90;;;10.60;99.90;;;;;;5012898;28;20644;-70
2024/02/05 06:46:48;;;;;;;1999.90;999.90;;;10.60;99.90;;;;;;5012703;28;20192;-70
2024/02/05 06:49:14;;;;;;;1999.90;999.90;;;10.50;99.90;;;;;;5011948;28;20646;-70
2024/02/05 06:51:41;;;;;;;1999.90;999.90;;;10.50;99.90;;;;;;5012705;28;20165;-70
2024/02/05 06:54:07;;;;;;;1999.90;999.90;;;10.50;99.90;;;;;;5012653;28;20398;-70
2024/02/05 06:56:33;;;;;;;1999.90;999.90;;;10.50;99.90;;;;;;5012702;28;20906;-71
2024/02/05 06:58:58;;;;;;;1999.90;999.90;;;10.50;99.90;;;;;;5012106;28;20472;-70
2024/02/05 07:01:25;;;;;;;1999.90;999.90;;;10.60;99.90;;;;;;5012319;28;20180;-70
2024/02/05 07:03:51;;;;;;;1999.90;999.90;;;10.50;99.90;;;;;;5012138;28;20271;-71
2024/02/05 07:06:17;;;;;;;1999.90;999.90;;;10.50;99.90;;;;;;5012186;28;20536;-70
2024/02/05 07:08:45;;;;;;;1999.90;999.90;;;10.40;99.90;;;;;;5011696;28;20187;-71
2024/02/05 07:11:11;;;;;;;1999.90;999.90;;;10.50;99.90;;;;;;5011993;28;20562;-70
2024/02/05 07:13:38;;;;;;;1999.90;999.90;;;10.40;99.90;;;;;;5011945;28;20403;-70
2024/02/05 07:16:05;;;;;;;1999.90;999.90;;;10.50;99.90;;;;;;5012082;28;20167;-70
2024/02/05 07:18:31;;;;;;;1999.90;999.90;;;10.20;99.90;;;;;;5011908;28;20445;-70
2024/02/05 07:21:01;;;;;;;1999.90;999.90;;;10.30;99.90;;;;;;5012000;28;20858;-70
2024/02/05 07:23:26;;;;;;;1999.90;999.90;;;10.40;99.90;;;;;;5012129;28;20161;-70
2024/02/05 07:25:52;;;;;;;1999.90;999.90;;;10.40;99.90;;;;;;5011993;28;20508;-70
2024/02/05 07:28:17;;;;;;;1999.90;999.90;;;10.40;99.90;;;;;;5011824;28;20164;-70
2024/02/05 07:30:43;;;;;;;1999.90;999.90;;;10.30;99.90;;;;;;5011675;28;20238;-71
2024/02/05 07:33:09;;;;;;;1999.90;999.90;;;10.30;99.90;;;;;;5011852;28;20170;-71
2024/02/05 07:35:34;;;;;;;1999.90;999.90;;;10.30;99.90;;;;;;5011936;28;20167;-70
2024/02/05 07:38:00;;;;;;;1999.90;999.90;;;10.30;99.90;;;;;;5011727;28;20255;-70
2024/02/05 07:40:25;;;;;;;1999.90;999.90;;;10.30;99.90;;;;;;5011264;28;20210;-71
2024/02/05 07:42:51;;;;;;;1999.90;999.90;;;10.30;99.90;;;;;;5015212;28;20168;-71
2024/02/05 07:45:17;;;;;;;1999.90;999.90;;;10.30;99.90;;;;;;5014876;28;20254;-71
2024/02/05 07:47:42;;;;;;;1999.90;999.90;;;10.30;97.60;;;;;;5015578;28;20200;-71
2024/02/05 07:50:09;;;;;;;1999.90;999.90;;;10.30;99.90;;;;;;5015401;28;20436;-71
2024/02/05 07:52:34;;;;;;;1999.90;999.90;;;9.20;99.40;;;;;;5015737;28;20173;-70
2024/02/05 07:55:00;;;;;;;1999.90;999.90;;;10.40;99.90;;;;;;5015341;28;20416;-70
2024/02/05 07:57:25;;;;;;;1999.90;999.90;;;10.30;99.90;;;;;;5014513;28;20179;-70
2024/02/05 07:59:51;;;;;;;1999.90;999.90;;;10.30;99.90;;;;;;5014853;28;20572;-69
2024/02/05 08:02:17;;;;;;;1999.90;999.90;;;10.30;94.30;;;;;;5014771;28;20259;-70
2024/02/05 08:04:42;;;;;;;1999.90;999.90;;;10.30;98.20;;;;;;5014744;28;20195;-70
2024/02/05 08:07:08;;;;;;;1999.90;999.90;;;10.30;99.90;;;;;;5015657;28;20636;-70
2024/02/05 08:09:34;;;;;;;1999.90;999.90;;;10.30;99.90;;;;;;5015665;28;20294;-70
2024/02/05 08:12:00;;;;;;;1999.90;999.90;;;10.30;96.90;;;;;;5015598;28;20176;-69
2024/02/05 08:14:25;;;;;;;1999.90;999.90;;;10.30;98.60;;;;;;5015535;28;20835;-70
2024/02/05 08:16:51;;;;;;;1999.90;999.90;;;10.20;91.30;;;;;;5015648;28;20311;-69
2024/02/05 08:19:17;;;;;;;1999.90;999.90;;;10.10;99.90;;;;;;5013655;28;20238;-70
2024/02/05 08:21:43;;;;;;;1999.90;999.90;;;10.30;99.90;;;;;;5015162;28;20496;-71
2024/02/05 08:24:08;;;;;;;1999.90;999.90;;;10.30;99.30;;;;;;5013952;28;20197;-70
2024/02/05 08:26:34;;;;;;;1999.90;999.90;;;10.30;97.70;;;;;;5014988;28;20568;-70
2024/02/05 08:29:00;;;;;;;1999.90;999.90;;;9.90;99.90;;;;;;5014581;28;20370;-70
2024/02/05 08:31:25;;;;;;;1999.90;999.90;;;10.30;88.90;;;;;;5015217;28;20885;-70
2024/02/05 08:33:51;;;;;;;1999.90;999.90;;;10.30;77.90;;;;;;5018399;28;20178;-71
2024/02/05 08:36:17;;;;;;;1999.90;999.90;;;10.40;74.30;;;;;;5017944;28;20203;-71
2024/02/05 08:38:43;;;;;;;1999.90;999.90;;;10.40;76.40;;;;;;5018386;28;20261;-71
2024/02/05 08:41:09;;;;;;;1999.90;999.90;;;10.30;82.00;;;;;;5017965;28;20487;-71
2024/02/05 08:43:34;;;;;;;1999.90;999.90;;;10.40;87.50;;;;;;5018512;28;20166;-71
2024/02/05 08:46:00;;;;;;;1999.90;999.90;;;10.30;75.60;;;;;;5017905;28;20446;-71
2024/02/05 08:48:26;;;;;;;1999.90;999.90;;;10.40;83.50;;;;;;5016390;28;20271;-71
2024/02/05 08:50:52;;;;;;;1999.90;999.90;;;10.40;74.30;;;;;;5017618;28;20184;-71
2024/02/05 08:53:18;;;;;;;1999.90;999.90;;;10.40;72.40;;;;;;5017125;28;20195;-71
2024/02/05 08:55:44;;;;;;;1999.90;999.90;;;10.40;71.20;;;;;;5017618;28;20434;-71
2024/02/05 08:58:10;;;;;;;1999.90;999.90;;;10.40;75.30;;;;;;5017497;28;20167;-71
2024/02/05 09:00:35;;;;;;;1999.90;999.90;;;10.50;55.90;;;;;;5015570;28;20423;-70
2024/02/05 09:03:02;;;;;;;1999.90;999.90;;;10.50;55.30;;;;;;5014565;28;20167;-70
2024/02/05 09:05:28;;;;;;;1999.90;999.90;;;10.50;46.60;;;;;;5014662;28;20170;-70
2024/02/05 09:07:54;;;;;;;1999.90;999.90;;;10.50;40.60;;;;;;5014328;28;20454;-70
2024/02/05 09:10:19;;;;;;;1999.90;999.90;;;10.60;56.10;;;;;;5014569;28;20224;-70
2024/02/05 09:12:45;;;;;;;1999.90;999.90;;;10.50;56.70;;;;;;5014445;28;20537;-70
2024/02/05 09:15:11;;;;;;;1999.90;999.90;;;10.50;43.80;;;;;;5014292;28;20174;-70
2024/02/05 09:17:37;;;;;;;1999.90;999.90;;;10.60;30.10;;;;;;5014406;28;20167;-70
2024/02/05 09:20:03;;;;;;;1999.90;999.90;;;10.60;27.10;;;;;;5014199;28;20200;-70
2024/02/05 09:22:29;;;;;;;1999.90;999.90;;;10.50;21.20;;;;;;5014345;28;20421;-70
2024/02/05 09:24:54;;;;;;;1999.90;999.90;;;10.60;20.50;;;;;;5014256;28;20403;-70
2024/02/05 09:27:20;;;;;;;1999.90;999.90;;;10.40;21.20;;;;;;5016122;28;20708;-70
2024/02/05 09:29:45;;;;;;;1999.90;999.90;;;10.60;11.70;;;;;;5017196;28;20266;-70
2024/02/05 09:32:11;;;;;;;1999.90;999.90;;;10.60;23.50;;;;;;5016079;28;20172;-70
2024/02/05 09:34:36;;;;;;;1999.90;999.90;;;10.70;16.10;;;;;;5016735;28;20171;-71
2024/02/05 09:37:03;;;;;;;1999.90;999.90;;;10.60;1.00;;;;;;5016839;28;20210;-71
2024/02/05 09:39:29;;;;;;;1999.90;999.90;;;10.50;1.00;;;;;;5015972;28;20742;-71
2024/02/05 09:41:59;;;;;;;1999.90;999.90;;;10.70;10.00;;;;;;5013619;28;20512;-71
2024/02/05 09:44:27;;;;;;;1999.90;999.90;;;10.70;10.70;;;;;;5013562;28;20550;-70
2024/02/05 09:46:55;;;;;;;1999.90;999.90;;;10.70;1.00;;;;;;5013417;28;20578;-70
2024/02/05 09:49:21;;;;;;;1999.90;999.90;;;10.70;1.00;;;;;;5013248;28;20804;-70
2024/02/05 09:51:48;;;;;;;1999.90;999.90;;;10.80;7.40;;;;;;5013431;28;20913;-70
2024/02/05 09:54:14;;;;;;;1999.90;999.90;;;10.70;1.00;;;;;;5013345;28;20426;-70
2024/02/05 09:56:40;;;;;;;1999.90;999.90;;;10.90;1.00;;;;;;5013367;28;20488;-71
2024/02/05 09:59:06;;;;;;;1999.90;999.90;;;10.90;27.30;;;;;;5013006;28;20413;-71
2024/02/05 10:01:32;;;;;;;1999.90;999.90;;;10.90;1.00;;;;;;5013341;28;20411;-71
2024/02/05 10:04:00;;;;;;;1999.90;999.90;;;11.00;1.00;;;;;;5013052;28;20907;-71
2024/02/05 10:06:33;;;;;;;1999.90;999.90;;;11.00;1.00;;;;;;5012405;28;20442;-70
2024/02/05 10:09:04;;;;;;;1999.90;999.90;;;11.00;1.00;;;;;;5012907;28;20403;-71
2024/02/05 10:11:32;;;;;;;1999.90;999.90;;;10.90;1.00;;;;;;5013185;28;20400;-71
2024/02/05 10:13:58;;;;;;;1999.90;999.90;;;11.10;1.00;;;;;;5013018;28;20403;-71
2024/02/05 10:16:23;;;;;;;1999.90;999.90;;;10.90;1.00;;;;;;5013068;28;20468;-70
2024/02/05 10:18:50;;;;;;;1999.90;999.90;;;10.90;1.00;;;;;;5012793;28;20411;-71
2024/02/05 10:21:17;;;;;;;1999.90;999.90;;;10.90;1.00;;;;;;5012916;28;20611;-70
2024/02/05 10:23:54;;;;;;;1999.90;999.90;;;10.90;1.00;;;;;;5012789;28;20408;-71
2024/02/05 10:26:20;;;;;;;1999.90;999.90;;;10.80;1.00;;;;;;5012892;28;20505;-71
2024/02/05 10:28:45;;;;;;;1999.90;999.90;;;11.00;1.00;;;;;;5012802;28;20485;-70
2024/02/05 10:31:12;;;;;;;1999.90;999.90;;;11.00;1.00;;;;;;5015116;28;20866;-70
2024/02/05 10:33:38;;;;;;;1999.90;999.90;;;11.00;1.00;;;;;;5015228;28;20255;-71
2024/02/05 10:36:04;;;;;;;1999.90;999.90;;;11.00;1.00;;;;;;5014215;28;20463;-71
2024/02/05 10:38:35;;;;;;;1999.90;999.90;;;10.90;1.00;;;;;;5013734;28;20180;-71
2024/02/05 10:41:02;;;;;;;1999.90;999.90;;;11.10;1.00;;;;;;5010305;28;20486;-71
2024/02/05 10:43:27;;;;;;;1999.90;999.90;;;11.10;1.00;;;;;;5006762;28;20538;-71
2024/02/05 10:45:57;;;;;;;1999.90;999.90;;;11.00;1.00;;;;;;5011712;28;20463;-69
2024/02/05 10:48:24;;;;;;;1999.90;999.90;;;11.20;1.00;;;;;;5010544;28;20549;-69
2024/02/05 10:50:50;;;;;;;1999.90;999.90;;;11.20;1.00;;;;;;5016436;28;20447;-71
2024/02/05 10:53:16;;;;;;;1999.90;999.90;;;11.30;1.00;;;;;;5012019;28;20412;-71
2024/02/05 10:55:44;;;;;;;1999.90;999.90;;;11.30;1.00;;;;;;5012731;28;20506;-72
2024/02/05 10:58:13;;;;;;;1999.90;999.90;;;11.40;1.00;;;;;;5023320;28;20528;-72
2024/02/05 11:00:40;;;;;;;1999.90;999.90;;;11.40;1.00;;;;;;5020829;28;20430;-70
2024/02/05 11:03:12;;;;;;;1999.90;999.90;;;11.50;1.00;;;;;;5019120;28;20412;-69
2024/02/05 11:05:40;;;;;;;1999.90;999.90;;;11.40;1.00;;;;;;5017990;28;20466;-69
2024/02/05 11:08:11;;;;;;;1999.90;999.90;;;11.50;1.00;;;;;;5013894;28;20408;-69
2024/02/05 11:10:43;;;;;;;1999.90;999.90;;;11.60;1.00;;;;;;5033231;28;20457;-71
2024/02/05 11:13:17;;;;;;;1999.90;999.90;;;11.50;1.00;;;;;;5021967;28;20414;-71
2024/02/05 11:15:44;;;;;;;1999.90;999.90;;;11.50;1.00;;;;;;5012009;28;20415;-71
2024/02/05 11:18:53;;;;;;;1999.90;999.90;;;11.40;1.00;;;;;;5010537;28;20439;-71
2024/02/05 11:21:29;;;;;;;1999.90;999.90;;;11.30;1.00;;;;;;4989767;28;20531;-70
2024/02/05 11:23:56;;;;;;;1999.90;999.90;;;11.30;1.00;;;;;;4989953;28;20423;-70
2024/02/05 11:26:22;;;;;;;1999.90;999.90;;;11.50;1.00;;;;;;5001929;28;20460;-70
2024/02/05 11:28:53;;;;;;;1999.90;999.90;;;11.40;1.00;;;;;;5011209;28;20419;-70
2024/02/05 11:31:22;;;;;;;1999.90;999.90;;;11.70;1.00;;;;;;5022300;28;20223;-70
2024/02/05 11:33:55;;;;;;;1999.90;999.90;;;11.50;1.00;;;;;;5031135;28;20414;-70
2024/02/05 11:36:21;;;;;;;1999.90;999.90;;;11.50;1.00;;;;;;5031416;28;20784;-70
2024/02/05 11:38:47;;;;;;;1999.90;999.90;;;11.70;1.00;;;;;;5011870;28;20466;-70
2024/02/05 11:41:13;;;;;;;1999.90;999.90;;;11.70;1.00;;;;;;5009848;28;20984;-70
2024/02/05 11:43:38;;;;;;;1999.90;999.90;;;11.80;99.90;;;;;;5011662;28;20181;-70
2024/02/05 11:46:05;;;;;;;1999.90;999.90;;;11.90;57.70;;;;;;5013845;28;20207;-70
2024/02/05 11:48:32;;;;;;;1999.90;999.90;;;11.70;57.90;;;;;;5030341;28;20163;-71
2024/02/05 11:51:01;;;;;;;1999.90;999.90;;;11.80;59.10;;;;;;5031368;28;20488;-70
2024/02/05 11:53:27;;;;;;;1999.90;999.90;;;11.80;59.00;;;;;;5030875;28;20761;-70
2024/02/05 11:55:53;;;;;;;1999.90;999.90;;;11.80;61.20;;;;;;5030734;28;20464;-70
2024/02/05 11:58:18;;;;;;;1999.90;999.90;;;11.70;62.00;;;;;;5031437;28;20174;-71